| Date | Time | Temp. (oF) | Dew Point (oF) | Rel. Hum. (%) | Press. (in.) | Wind Dir. | Wind Speed (mph) | Hourly Rainfall (in.) |
|
|---|---|---|---|---|---|---|---|---|---|
| 1 | 11/16 | 00:00 | 52 | 41 | 68 | 29.47 | WSW | 11 | 0.00 |
| 2 | 11/15 | 23:00 | 54 | 45 | 72 | 29.50 | WSW | 13 | 0.00 |
| 3 | 11/15 | 22:00 | 57 | 51 | 83 | 29.48 | WSW | 9 | 0.00 |
| 4 | 11/15 | 21:00 | 57 | 54 | 90 | 29.45 | SW | 4 | 0.00 |
| 5 | 11/15 | 20:00 | 58 | 57 | 97 | 29.41 | W | 1 | 0.00 |
| 6 | 11/15 | 19:00 | 57 | 57 | 100 | 29.40 | WSW | 0 | 0.00 |
| 7 | 11/15 | 18:00 | 59 | 58 | 97 | 29.41 | SSW | 0 | 0.02 |
| 8 | 11/15 | 17:00 | 61 | 60 | 97 | 29.40 | SSW | 0 | 0.00 |
| 9 | 11/15 | 16:00 | 61 | 60 | 97 | 29.36 | SW | 0 | 0.12 |
| 10 | 11/15 | 15:00 | 69 | 63 | 84 | 29.29 | S | 12 | 0.01 |
| 11 | 11/15 | 14:00 | 70 | 65 | 85 | 29.32 | SSW | 15 | 0.00 |
| 12 | 11/15 | 13:00 | 69 | 65 | 90 | 29.38 | SSW | 11 | 0.00 |
| 13 | 11/15 | 12:00 | 68 | 66 | 95 | 29.42 | S | 20 | 0.00 |
| 14 | 11/15 | 11:00 | 66 | 66 | 100 | 29.46 | SSE | 8 | 0.00 |
| 15 | 11/15 | 10:00 | 64 | 63 | 100 | 29.50 | S | 9 | 0.01 |
| 16 | 11/15 | 09:00 | 62 | 62 | 100 | 29.53 | S | 9 | 0.01 |
| 17 | 11/15 | 08:00 | 61 | 60 | 100 | 29.55 | SSE | 4 | 0.00 |
| 18 | 11/15 | 07:00 | 58 | 58 | 100 | 29.58 | ESE | 2 | 0.02 |
| 19 | 11/15 | 06:00 | 56 | 55 | 100 | 29.64 | SE | 7 | 0.03 |
| 20 | 11/15 | 05:00 | 56 | 55 | 100 | 29.65 | ENE | 3 | 0.07 |
| 21 | 11/15 | 04:00 | 55 | 54 | 100 | 29.71 | S | 3 | 0.10 |
| 22 | 11/15 | 03:00 | 55 | 54 | 100 | 29.75 | ESE | 3 | 0.01 |
| 23 | 11/15 | 02:00 | 55 | 54 | 100 | 29.78 | NE | 2 | 0.00 |
| 24 | 11/15 | 01:00 | 55 | 54 | 100 | 29.80 | ESE | 0 | 0.00 |